sensor_id;sensor_type;location;lat;lon;timestamp;temperature;humidity
14188;DHT22;7175;51.978;5.330;2023-04-12T00:00:08;9.70;99.90
14188;DHT22;7175;51.978;5.330;2023-04-12T00:02:41;9.60;99.90
14188;DHT22;7175;51.978;5.330;2023-04-12T00:05:11;9.50;99.90
14188;DHT22;7175;51.978;5.330;2023-04-12T00:07:40;9.50;99.90
14188;DHT22;7175;51.978;5.330;2023-04-12T00:10:13;9.40;99.90
14188;DHT22;7175;51.978;5.330;2023-04-12T00:12:41;9.40;99.90
14188;DHT22;7175;51.978;5.330;2023-04-12T00:15:10;9.40;99.90
14188;DHT22;7175;51.978;5.330;2023-04-12T00:17:38;9.30;99.90
14188;DHT22;7175;51.978;5.330;2023-04-12T00:20:09;9.20;99.90
14188;DHT22;7175;51.978;5.330;2023-04-12T00:22:39;9.20;99.90
14188;DHT22;7175;51.978;5.330;2023-04-12T00:25:09;9.10;99.90
14188;DHT22;7175;51.978;5.330;2023-04-12T00:27:38;9.10;99.90
14188;DHT22;7175;51.978;5.330;2023-04-12T00:30:07;9.10;99.90
14188;DHT22;7175;51.978;5.330;2023-04-12T00:32:36;9.10;99.90
14188;DHT22;7175;51.978;5.330;2023-04-12T00:35:05;9.00;99.90
14188;DHT22;7175;51.978;5.330;2023-04-12T00:37:35;9.00;99.90
14188;DHT22;7175;51.978;5.330;2023-04-12T00:40:07;9.00;99.90
14188;DHT22;7175;51.978;5.330;2023-04-12T00:42:36;8.90;99.90
14188;DHT22;7175;51.978;5.330;2023-04-12T00:45:06;8.90;99.90
14188;DHT22;7175;51.978;5.330;2023-04-12T00:47:35;8.80;99.90
14188;DHT22;7175;51.978;5.330;2023-04-12T00:50:05;8.80;99.90
14188;DHT22;7175;51.978;5.330;2023-04-12T00:52:36;8.80;99.90
14188;DHT22;7175;51.978;5.330;2023-04-12T00:55:06;8.80;99.90
14188;DHT22;7175;51.978;5.330;2023-04-12T00:57:37;8.80;99.90
14188;DHT22;7175;51.978;5.330;2023-04-12T01:00:08;8.70;99.90
14188;DHT22;7175;51.978;5.330;2023-04-12T01:02:39;8.70;99.90
14188;DHT22;7175;51.978;5.330;2023-04-12T01:05:09;8.70;99.90
14188;DHT22;7175;51.978;5.330;2023-04-12T01:07:48;8.70;99.90
14188;DHT22;7175;51.978;5.330;2023-04-12T01:10:28;8.80;99.90
14188;DHT22;7175;51.978;5.330;2023-04-12T01:13:07;8.80;99.90
14188;DHT22;7175;51.978;5.330;2023-04-12T01:18:25;8.80;99.90
14188;DHT22;7175;51.978;5.330;2023-04-12T01:21:00;8.80;99.90
14188;DHT22;7175;51.978;5.330;2023-04-12T01:23:49;8.80;99.90
14188;DHT22;7175;51.978;5.330;2023-04-12T01:26:32;8.80;99.90
14188;DHT22;7175;51.978;5.330;2023-04-12T01:29:08;8.70;99.90
14188;DHT22;7175;51.978;5.330;2023-04-12T01:31:40;8.70;99.90
14188;DHT22;7175;51.978;5.330;2023-04-12T01:34:09;8.70;99.90
14188;DHT22;7175;51.978;5.330;2023-04-12T01:36:40;8.70;99.90
14188;DHT22;7175;51.978;5.330;2023-04-12T01:39:11;8.70;99.90
14188;DHT22;7175;51.978;5.330;2023-04-12T01:41:40;8.70;99.90
14188;DHT22;7175;51.978;5.330;2023-04-12T01:44:16;8.70;99.90
14188;DHT22;7175;51.978;5.330;2023-04-12T01:46:45;8.70;99.90
14188;DHT22;7175;51.978;5.330;2023-04-12T01:49:15;8.70;99.90
14188;DHT22;7175;51.978;5.330;2023-04-12T01:51:50;8.70;99.90
14188;DHT22;7175;51.978;5.330;2023-04-12T01:54:22;8.70;99.90
14188;DHT22;7175;51.978;5.330;2023-04-12T01:56:55;8.70;99.90
14188;DHT22;7175;51.978;5.330;2023-04-12T01:59:30;8.70;99.90
14188;DHT22;7175;51.978;5.330;2023-04-12T02:02:00;8.70;99.90
14188;DHT22;7175;51.978;5.330;2023-04-12T02:04:30;8.70;99.90
14188;DHT22;7175;51.978;5.330;2023-04-12T02:06:59;8.70;99.90
14188;DHT22;7175;51.978;5.330;2023-04-12T02:09:28;8.70;99.90
14188;DHT22;7175;51.978;5.330;2023-04-12T02:11:56;8.70;99.90
14188;DHT22;7175;51.978;5.330;2023-04-12T02:14:26;8.60;99.90
14188;DHT22;7175;51.978;5.330;2023-04-12T02:16:57;8.60;99.90
14188;DHT22;7175;51.978;5.330;2023-04-12T02:19:28;8.70;99.90
14188;DHT22;7175;51.978;5.330;2023-04-12T02:21:57;8.60;99.90
14188;DHT22;7175;51.978;5.330;2023-04-12T02:24:25;8.60;99.90
14188;DHT22;7175;51.978;5.330;2023-04-12T02:26:54;8.70;99.90
14188;DHT22;7175;51.978;5.330;2023-04-12T02:29:22;8.70;99.90
14188;DHT22;7175;51.978;5.330;2023-04-12T02:31:53;8.70;99.90
14188;DHT22;7175;51.978;5.330;2023-04-12T02:34:21;8.70;99.90
14188;DHT22;7175;51.978;5.330;2023-04-12T02:36:50;8.70;99.90
14188;DHT22;7175;51.978;5.330;2023-04-12T02:39:18;8.70;99.90
14188;DHT22;7175;51.978;5.330;2023-04-12T02:41:48;8.70;99.90
14188;DHT22;7175;51.978;5.330;2023-04-12T02:44:17;8.60;99.90
14188;DHT22;7175;51.978;5.330;2023-04-12T02:46:45;8.60;99.90
14188;DHT22;7175;51.978;5.330;2023-04-12T02:49:15;8.60;99.90
14188;DHT22;7175;51.978;5.330;2023-04-12T02:51:43;8.60;99.90
14188;DHT22;7175;51.978;5.330;2023-04-12T02:54:12;8.70;99.90
14188;DHT22;7175;51.978;5.330;2023-04-12T02:56:40;8.70;99.90
14188;DHT22;7175;51.978;5.330;2023-04-12T02:59:10;8.70;99.90
14188;DHT22;7175;51.978;5.330;2023-04-12T03:01:38;8.70;99.90
14188;DHT22;7175;51.978;5.330;2023-04-12T03:04:07;8.70;99.90
14188;DHT22;7175;51.978;5.330;2023-04-12T03:06:36;8.60;99.90
14188;DHT22;7175;51.978;5.330;2023-04-12T03:09:06;8.60;99.90
14188;DHT22;7175;51.978;5.330;2023-04-12T03:11:34;8.60;99.90
14188;DHT22;7175;51.978;5.330;2023-04-12T03:14:03;8.60;99.90
14188;DHT22;7175;51.978;5.330;2023-04-12T03:16:31;8.60;99.90
14188;DHT22;7175;51.978;5.330;2023-04-12T03:19:01;8.60;99.90
14188;DHT22;7175;51.978;5.330;2023-04-12T03:21:30;8.60;99.90
14188;DHT22;7175;51.978;5.330;2023-04-12T03:24:00;8.50;99.90
14188;DHT22;7175;51.978;5.330;2023-04-12T03:26:30;8.60;99.90
14188;DHT22;7175;51.978;5.330;2023-04-12T03:29:01;8.50;99.90
14188;DHT22;7175;51.978;5.330;2023-04-12T03:31:31;8.50;99.90
14188;DHT22;7175;51.978;5.330;2023-04-12T03:33:59;8.50;99.90
14188;DHT22;7175;51.978;5.330;2023-04-12T03:36:29;8.50;99.90
14188;DHT22;7175;51.978;5.330;2023-04-12T03:38:57;8.40;99.90
14188;DHT22;7175;51.978;5.330;2023-04-12T03:41:27;8.40;99.90
14188;DHT22;7175;51.978;5.330;2023-04-12T03:43:56;8.40;99.90
14188;DHT22;7175;51.978;5.330;2023-04-12T03:46:25;8.40;99.90
14188;DHT22;7175;51.978;5.330;2023-04-12T03:48:53;8.40;99.90
14188;DHT22;7175;51.978;5.330;2023-04-12T03:51:23;8.30;99.90
14188;DHT22;7175;51.978;5.330;2023-04-12T03:53:53;8.30;99.90
14188;DHT22;7175;51.978;5.330;2023-04-12T03:56:22;8.30;99.90
14188;DHT22;7175;51.978;5.330;2023-04-12T03:58:51;8.30;99.90
14188;DHT22;7175;51.978;5.330;2023-04-12T04:01:20;8.30;99.90
14188;DHT22;7175;51.978;5.330;2023-04-12T04:03:49;8.30;99.90
14188;DHT22;7175;51.978;5.330;2023-04-12T04:06:19;8.30;99.90
14188;DHT22;7175;51.978;5.330;2023-04-12T04:08:47;8.20;99.90
14188;DHT22;7175;51.978;5.330;2023-04-12T04:11:16;8.20;99.90
14188;DHT22;7175;51.978;5.330;2023-04-12T04:13:44;8.20;99.90
14188;DHT22;7175;51.978;5.330;2023-04-12T04:16:15;8.20;99.90
14188;DHT22;7175;51.978;5.330;2023-04-12T04:18:44;8.20;99.90
14188;DHT22;7175;51.978;5.330;2023-04-12T04:21:12;8.20;99.90
14188;DHT22;7175;51.978;5.330;2023-04-12T04:23:41;8.20;99.90
14188;DHT22;7175;51.978;5.330;2023-04-12T04:26:13;8.20;99.90
14188;DHT22;7175;51.978;5.330;2023-04-12T04:28:43;8.20;99.90
14188;DHT22;7175;51.978;5.330;2023-04-12T04:31:12;8.20;99.90
14188;DHT22;7175;51.978;5.330;2023-04-12T04:33:45;8.20;99.90
14188;DHT22;7175;51.978;5.330;2023-04-12T04:36:14;8.20;99.90
14188;DHT22;7175;51.978;5.330;2023-04-12T04:38:42;8.20;99.90
14188;DHT22;7175;51.978;5.330;2023-04-12T04:41:12;8.20;99.90
14188;DHT22;7175;51.978;5.330;2023-04-12T04:43:40;8.30;99.90
14188;DHT22;7175;51.978;5.330;2023-04-12T04:46:09;8.30;99.90
14188;DHT22;7175;51.978;5.330;2023-04-12T04:48:37;8.30;99.90
14188;DHT22;7175;51.978;5.330;2023-04-12T04:51:08;8.30;99.90
14188;DHT22;7175;51.978;5.330;2023-04-12T04:53:38;8.30;99.90
14188;DHT22;7175;51.978;5.330;2023-04-12T04:56:07;8.30;99.90
14188;DHT22;7175;51.978;5.330;2023-04-12T04:58:36;8.30;99.90
14188;DHT22;7175;51.978;5.330;2023-04-12T05:01:05;8.30;99.90
14188;DHT22;7175;51.978;5.330;2023-04-12T05:03:34;8.30;99.90
14188;DHT22;7175;51.978;5.330;2023-04-12T05:06:04;8.30;99.90
14188;DHT22;7175;51.978;5.330;2023-04-12T05:08:34;8.40;99.90
14188;DHT22;7175;51.978;5.330;2023-04-12T05:11:02;8.40;99.90
14188;DHT22;7175;51.978;5.330;2023-04-12T05:13:31;8.40;99.90
14188;DHT22;7175;51.978;5.330;2023-04-12T05:15:59;8.40;99.90
14188;DHT22;7175;51.978;5.330;2023-04-12T05:18:28;8.30;99.90
14188;DHT22;7175;51.978;5.330;2023-04-12T05:21:00;8.30;99.90
14188;DHT22;7175;51.978;5.330;2023-04-12T05:23:31;8.40;99.90
14188;DHT22;7175;51.978;5.330;2023-04-12T05:26:01;8.30;99.90
14188;DHT22;7175;51.978;5.330;2023-04-12T05:28:30;8.30;99.90
14188;DHT22;7175;51.978;5.330;2023-04-12T05:30:59;8.40;99.90
14188;DHT22;7175;51.978;5.330;2023-04-12T05:33:28;8.30;99.90
14188;DHT22;7175;51.978;5.330;2023-04-12T05:35:59;8.40;99.90
14188;DHT22;7175;51.978;5.330;2023-04-12T05:38:28;8.40;99.90
14188;DHT22;7175;51.978;5.330;2023-04-12T05:40:56;8.40;99.90
14188;DHT22;7175;51.978;5.330;2023-04-12T05:43:26;8.40;99.90
14188;DHT22;7175;51.978;5.330;2023-04-12T05:45:54;8.50;99.90
14188;DHT22;7175;51.978;5.330;2023-04-12T05:48:23;8.40;99.90
14188;DHT22;7175;51.978;5.330;2023-04-12T05:50:52;8.40;99.90
14188;DHT22;7175;51.978;5.330;2023-04-12T05:53:21;8.40;99.90
14188;DHT22;7175;51.978;5.330;2023-04-12T05:55:49;8.40;99.90
14188;DHT22;7175;51.978;5.330;2023-04-12T05:58:20;8.50;99.90
14188;DHT22;7175;51.978;5.330;2023-04-12T06:00:50;8.50;99.90
14188;DHT22;7175;51.978;5.330;2023-04-12T06:03:21;8.60;99.90
14188;DHT22;7175;51.978;5.330;2023-04-12T06:05:51;8.50;99.90
14188;DHT22;7175;51.978;5.330;2023-04-12T06:08:20;8.60;99.90
14188;DHT22;7175;51.978;5.330;2023-04-12T06:10:48;8.60;99.90
14188;DHT22;7175;51.978;5.330;2023-04-12T06:13:17;8.60;99.90
14188;DHT22;7175;51.978;5.330;2023-04-12T06:15:45;8.60;99.90
14188;DHT22;7175;51.978;5.330;2023-04-12T06:18:15;8.60;99.90
14188;DHT22;7175;51.978;5.330;2023-04-12T06:20:43;8.70;99.90
14188;DHT22;7175;51.978;5.330;2023-04-12T06:23:12;8.70;99.90
14188;DHT22;7175;51.978;5.330;2023-04-12T06:25:40;8.70;99.90
14188;DHT22;7175;51.978;5.330;2023-04-12T06:28:09;8.70;99.90
14188;DHT22;7175;51.978;5.330;2023-04-12T06:30:37;8.70;99.90
14188;DHT22;7175;51.978;5.330;2023-04-12T06:33:06;8.80;99.90
14188;DHT22;7175;51.978;5.330;2023-04-12T06:35:36;8.80;99.90
14188;DHT22;7175;51.978;5.330;2023-04-12T06:38:05;8.80;99.90
14188;DHT22;7175;51.978;5.330;2023-04-12T06:40:33;8.80;99.90
14188;DHT22;7175;51.978;5.330;2023-04-12T06:43:02;8.90;99.90
14188;DHT22;7175;51.978;5.330;2023-04-12T06:45:30;8.80;99.90
14188;DHT22;7175;51.978;5.330;2023-04-12T06:47:59;8.90;99.90
14188;DHT22;7175;51.978;5.330;2023-04-12T06:50:27;8.90;99.90
14188;DHT22;7175;51.978;5.330;2023-04-12T06:52:57;8.90;99.90
14188;DHT22;7175;51.978;5.330;2023-04-12T06:55:26;8.90;99.90
14188;DHT22;7175;51.978;5.330;2023-04-12T06:57:55;9.00;99.90
14188;DHT22;7175;51.978;5.330;2023-04-12T07:00:24;9.00;99.90
14188;DHT22;7175;51.978;5.330;2023-04-12T07:02:52;9.00;99.90
14188;DHT22;7175;51.978;5.330;2023-04-12T07:05:21;9.00;99.90
14188;DHT22;7175;51.978;5.330;2023-04-12T07:07:50;9.10;99.90
14188;DHT22;7175;51.978;5.330;2023-04-12T07:10:20;9.10;99.90
14188;DHT22;7175;51.978;5.330;2023-04-12T07:12:48;9.10;99.90
14188;DHT22;7175;51.978;5.330;2023-04-12T07:15:18;9.10;99.90
14188;DHT22;7175;51.978;5.330;2023-04-12T07:17:46;9.20;99.90
14188;DHT22;7175;51.978;5.330;2023-04-12T07:20:15;9.20;99.90
14188;DHT22;7175;51.978;5.330;2023-04-12T07:22:44;9.20;99.90
14188;DHT22;7175;51.978;5.330;2023-04-12T07:25:13;9.20;99.90
14188;DHT22;7175;51.978;5.330;2023-04-12T07:27:43;9.30;99.90
14188;DHT22;7175;51.978;5.330;2023-04-12T07:30:12;9.30;99.90
14188;DHT22;7175;51.978;5.330;2023-04-12T07:32:40;9.30;99.90
14188;DHT22;7175;51.978;5.330;2023-04-12T07:35:09;9.40;99.90
14188;DHT22;7175;51.978;5.330;2023-04-12T07:37:37;9.40;99.90
14188;DHT22;7175;51.978;5.330;2023-04-12T07:40:07;9.50;99.90
14188;DHT22;7175;51.978;5.330;2023-04-12T07:42:35;9.50;99.90
14188;DHT22;7175;51.978;5.330;2023-04-12T07:45:06;9.50;99.90
14188;DHT22;7175;51.978;5.330;2023-04-12T07:47:35;9.50;99.90
14188;DHT22;7175;51.978;5.330;2023-04-12T07:50:04;9.60;99.90
14188;DHT22;7175;51.978;5.330;2023-04-12T07:52:33;9.70;99.90
14188;DHT22;7175;51.978;5.330;2023-04-12T07:55:02;9.70;99.90
14188;DHT22;7175;51.978;5.330;2023-04-12T07:57:31;9.80;99.90
14188;DHT22;7175;51.978;5.330;2023-04-12T08:00:00;9.80;99.90
14188;DHT22;7175;51.978;5.330;2023-04-12T08:02:30;9.80;99.90
14188;DHT22;7175;51.978;5.330;2023-04-12T08:04:58;9.80;99.90
14188;DHT22;7175;51.978;5.330;2023-04-12T08:07:27;9.80;99.90
14188;DHT22;7175;51.978;5.330;2023-04-12T08:09:55;9.90;99.90
14188;DHT22;7175;51.978;5.330;2023-04-12T08:12:24;10.20;99.90
14188;DHT22;7175;51.978;5.330;2023-04-12T08:14:53;10.30;99.90
14188;DHT22;7175;51.978;5.330;2023-04-12T08:17:21;10.50;99.90
14188;DHT22;7175;51.978;5.330;2023-04-12T08:19:51;10.80;99.90
14188;DHT22;7175;51.978;5.330;2023-04-12T08:22:20;11.30;99.90
14188;DHT22;7175;51.978;5.330;2023-04-12T08:24:48;11.40;99.90
14188;DHT22;7175;51.978;5.330;2023-04-12T08:27:17;11.40;99.90
14188;DHT22;7175;51.978;5.330;2023-04-12T08:29:45;11.40;99.90
14188;DHT22;7175;51.978;5.330;2023-04-12T08:32:13;11.40;99.90
14188;DHT22;7175;51.978;5.330;2023-04-12T08:34:45;11.40;99.90
14188;DHT22;7175;51.978;5.330;2023-04-12T08:37:14;11.60;99.90
14188;DHT22;7175;51.978;5.330;2023-04-12T08:39:43;11.60;99.90
14188;DHT22;7175;51.978;5.330;2023-04-12T08:42:13;11.90;99.90
14188;DHT22;7175;51.978;5.330;2023-04-12T08:44:43;11.90;99.90
14188;DHT22;7175;51.978;5.330;2023-04-12T08:47:11;11.90;99.90
14188;DHT22;7175;51.978;5.330;2023-04-12T08:49:39;12.20;99.90
14188;DHT22;7175;51.978;5.330;2023-04-12T08:52:09;12.10;99.90
14188;DHT22;7175;51.978;5.330;2023-04-12T08:54:39;12.20;99.90
14188;DHT22;7175;51.978;5.330;2023-04-12T08:57:08;12.40;99.90
14188;DHT22;7175;51.978;5.330;2023-04-12T08:59:37;12.40;99.90
14188;DHT22;7175;51.978;5.330;2023-04-12T09:02:06;12.40;99.90
14188;DHT22;7175;51.978;5.330;2023-04-12T09:04:46;12.40;99.90
14188;DHT22;7175;51.978;5.330;2023-04-12T09:07:15;12.20;99.90
14188;DHT22;7175;51.978;5.330;2023-04-12T09:09:46;12.20;99.90
14188;DHT22;7175;51.978;5.330;2023-04-12T09:12:16;12.40;99.90
14188;DHT22;7175;51.978;5.330;2023-04-12T09:14:46;12.50;99.90
14188;DHT22;7175;51.978;5.330;2023-04-12T09:17:22;12.80;99.90
14188;DHT22;7175;51.978;5.330;2023-04-12T09:19:51;12.80;99.90
14188;DHT22;7175;51.978;5.330;2023-04-12T09:22:32;13.10;99.90
14188;DHT22;7175;51.978;5.330;2023-04-12T09:25:03;13.20;99.90
14188;DHT22;7175;51.978;5.330;2023-04-12T09:27:44;12.80;99.90
14188;DHT22;7175;51.978;5.330;2023-04-12T09:30:15;12.30;99.90
14188;DHT22;7175;51.978;5.330;2023-04-12T09:32:44;12.20;99.90
14188;DHT22;7175;51.978;5.330;2023-04-12T09:35:15;12.30;99.90
14188;DHT22;7175;51.978;5.330;2023-04-12T09:37:44;12.40;99.90
14188;DHT22;7175;51.978;5.330;2023-04-12T09:40:13;12.20;99.90
14188;DHT22;7175;51.978;5.330;2023-04-12T09:42:50;12.00;99.90
14188;DHT22;7175;51.978;5.330;2023-04-12T09:45:21;11.70;99.90
14188;DHT22;7175;51.978;5.330;2023-04-12T09:47:51;11.70;99.90
14188;DHT22;7175;51.978;5.330;2023-04-12T09:50:21;11.70;99.90
14188;DHT22;7175;51.978;5.330;2023-04-12T09:52:50;11.80;99.90
14188;DHT22;7175;51.978;5.330;2023-04-12T09:55:21;12.00;99.90
14188;DHT22;7175;51.978;5.330;2023-04-12T09:57:52;12.00;99.90
14188;DHT22;7175;51.978;5.330;2023-04-12T10:00:25;12.20;99.90
14188;DHT22;7175;51.978;5.330;2023-04-12T10:02:57;12.00;99.90
14188;DHT22;7175;51.978;5.330;2023-04-12T10:05:26;12.00;99.90
14188;DHT22;7175;51.978;5.330;2023-04-12T10:07:55;12.00;99.90
14188;DHT22;7175;51.978;5.330;2023-04-12T10:10:25;11.90;99.90
14188;DHT22;7175;51.978;5.330;2023-04-12T10:12:54;12.00;99.90
14188;DHT22;7175;51.978;5.330;2023-04-12T10:15:23;12.30;99.90
14188;DHT22;7175;51.978;5.330;2023-04-12T10:17:53;12.30;99.90
14188;DHT22;7175;51.978;5.330;2023-04-12T10:20:24;12.30;99.90
14188;DHT22;7175;51.978;5.330;2023-04-12T10:22:56;12.60;99.90
14188;DHT22;7175;51.978;5.330;2023-04-12T10:25:28;12.90;99.90
14188;DHT22;7175;51.978;5.330;2023-04-12T10:28:13;12.80;99.90
14188;DHT22;7175;51.978;5.330;2023-04-12T10:30:42;13.10;99.90
14188;DHT22;7175;51.978;5.330;2023-04-12T10:33:12;13.20;99.90
14188;DHT22;7175;51.978;5.330;2023-04-12T10:35:54;13.60;99.90
14188;DHT22;7175;51.978;5.330;2023-04-12T10:38:24;13.80;99.90
14188;DHT22;7175;51.978;5.330;2023-04-12T10:41:15;14.30;99.90
14188;DHT22;7175;51.978;5.330;2023-04-12T10:43:43;14.20;99.90
14188;DHT22;7175;51.978;5.330;2023-04-12T10:46:46;13.60;99.90
14188;DHT22;7175;51.978;5.330;2023-04-12T10:49:16;13.10;99.90
14188;DHT22;7175;51.978;5.330;2023-04-12T10:52:12;13.10;99.90
14188;DHT22;7175;51.978;5.330;2023-04-12T10:54:41;13.00;99.90
14188;DHT22;7175;51.978;5.330;2023-04-12T10:57:45;13.10;99.90
14188;DHT22;7175;51.978;5.330;2023-04-12T11:00:16;13.00;99.90
14188;DHT22;7175;51.978;5.330;2023-04-12T11:03:05;13.20;99.90
14188;DHT22;7175;51.978;5.330;2023-04-12T11:05:58;13.30;99.90
14188;DHT22;7175;51.978;5.330;2023-04-12T11:08:38;13.50;99.90
14188;DHT22;7175;51.978;5.330;2023-04-12T11:11:18;13.40;99.90
14188;DHT22;7175;51.978;5.330;2023-04-12T11:13:53;13.30;99.90
14188;DHT22;7175;51.978;5.330;2023-04-12T11:16:24;13.40;99.90
14188;DHT22;7175;51.978;5.330;2023-04-12T11:18:53;13.30;99.90
14188;DHT22;7175;51.978;5.330;2023-04-12T11:21:21;13.30;99.90
14188;DHT22;7175;51.978;5.330;2023-04-12T11:23:51;13.60;99.90
14188;DHT22;7175;51.978;5.330;2023-04-12T11:26:22;13.50;99.90
14188;DHT22;7175;51.978;5.330;2023-04-12T11:28:52;13.30;99.90
14188;DHT22;7175;51.978;5.330;2023-04-12T11:31:22;13.60;99.90
14188;DHT22;7175;51.978;5.330;2023-04-12T11:33:50;14.30;99.90
14188;DHT22;7175;51.978;5.330;2023-04-12T11:36:19;14.20;99.90
14188;DHT22;7175;51.978;5.330;2023-04-12T11:38:47;13.90;99.90
14188;DHT22;7175;51.978;5.330;2023-04-12T11:41:16;13.90;99.90
14188;DHT22;7175;51.978;5.330;2023-04-12T11:43:45;13.80;99.90
14188;DHT22;7175;51.978;5.330;2023-04-12T11:46:16;13.60;99.90
14188;DHT22;7175;51.978;5.330;2023-04-12T11:48:46;13.70;99.90
14188;DHT22;7175;51.978;5.330;2023-04-12T11:51:20;13.60;99.90
14188;DHT22;7175;51.978;5.330;2023-04-12T11:53:55;14.00;99.90
14188;DHT22;7175;51.978;5.330;2023-04-12T11:56:25;14.70;99.90
14188;DHT22;7175;51.978;5.330;2023-04-12T11:58:55;14.50;99.90
14188;DHT22;7175;51.978;5.330;2023-04-12T12:01:25;14.50;99.90
14188;DHT22;7175;51.978;5.330;2023-04-12T12:03:55;14.20;99.90
14188;DHT22;7175;51.978;5.330;2023-04-12T12:06:25;14.10;99.90
14188;DHT22;7175;51.978;5.330;2023-04-12T12:08:54;14.10;99.90
14188;DHT22;7175;51.978;5.330;2023-04-12T12:11:23;13.90;99.90
14188;DHT22;7175;51.978;5.330;2023-04-12T12:13:54;14.10;99.90
14188;DHT22;7175;51.978;5.330;2023-04-12T12:16:26;14.40;99.90
14188;DHT22;7175;51.978;5.330;2023-04-12T12:18:55;14.70;99.90
14188;DHT22;7175;51.978;5.330;2023-04-12T12:21:24;14.40;99.90
14188;DHT22;7175;51.978;5.330;2023-04-12T12:23:55;14.10;99.90
14188;DHT22;7175;51.978;5.330;2023-04-12T12:26:26;14.20;99.90
14188;DHT22;7175;51.978;5.330;2023-04-12T12:28:56;14.00;99.90
14188;DHT22;7175;51.978;5.330;2023-04-12T12:31:27;14.10;99.90
14188;DHT22;7175;51.978;5.330;2023-04-12T12:33:58;14.00;99.90
14188;DHT22;7175;51.978;5.330;2023-04-12T12:36:32;14.10;99.90
14188;DHT22;7175;51.978;5.330;2023-04-12T12:39:03;13.90;99.90
14188;DHT22;7175;51.978;5.330;2023-04-12T12:41:34;13.80;99.90
14188;DHT22;7175;51.978;5.330;2023-04-12T12:44:02;13.70;99.90
14188;DHT22;7175;51.978;5.330;2023-04-12T12:46:32;13.80;99.90
14188;DHT22;7175;51.978;5.330;2023-04-12T12:49:04;13.60;99.90
14188;DHT22;7175;51.978;5.330;2023-04-12T12:51:32;13.50;99.90
14188;DHT22;7175;51.978;5.330;2023-04-12T12:54:01;13.50;99.90
14188;DHT22;7175;51.978;5.330;2023-04-12T12:56:29;13.20;99.90
14188;DHT22;7175;51.978;5.330;2023-04-12T12:58:58;12.90;99.90
14188;DHT22;7175;51.978;5.330;2023-04-12T13:01:27;12.80;99.90
14188;DHT22;7175;51.978;5.330;2023-04-12T13:03:57;12.80;99.90
14188;DHT22;7175;51.978;5.330;2023-04-12T13:06:25;13.00;99.90
14188;DHT22;7175;51.978;5.330;2023-04-12T13:08:54;13.60;99.90
14188;DHT22;7175;51.978;5.330;2023-04-12T13:11:23;13.80;99.90
14188;DHT22;7175;51.978;5.330;2023-04-12T13:13:51;13.50;99.90
14188;DHT22;7175;51.978;5.330;2023-04-12T13:16:20;13.40;99.90
14188;DHT22;7175;51.978;5.330;2023-04-12T13:18:53;13.30;99.90
14188;DHT22;7175;51.978;5.330;2023-04-12T13:21:24;13.40;99.90
14188;DHT22;7175;51.978;5.330;2023-04-12T13:23:53;13.40;99.90
14188;DHT22;7175;51.978;5.330;2023-04-12T13:26:22;13.10;99.90
14188;DHT22;7175;51.978;5.330;2023-04-12T13:28:52;13.80;99.90
14188;DHT22;7175;51.978;5.330;2023-04-12T13:31:20;13.70;99.90
14188;DHT22;7175;51.978;5.330;2023-04-12T13:33:49;13.80;99.90
14188;DHT22;7175;51.978;5.330;2023-04-12T13:36:17;13.80;99.90
14188;DHT22;7175;51.978;5.330;2023-04-12T13:38:47;14.00;99.90
14188;DHT22;7175;51.978;5.330;2023-04-12T13:41:16;14.30;99.90
14188;DHT22;7175;51.978;5.330;2023-04-12T13:43:45;14.10;99.90
14188;DHT22;7175;51.978;5.330;2023-04-12T13:46:14;13.70;99.90
14188;DHT22;7175;51.978;5.330;2023-04-12T13:48:42;13.60;99.90
14188;DHT22;7175;51.978;5.330;2023-04-12T13:51:11;13.60;99.90
14188;DHT22;7175;51.978;5.330;2023-04-12T13:53:39;13.80;99.90
14188;DHT22;7175;51.978;5.330;2023-04-12T13:56:10;14.00;99.90
14188;DHT22;7175;51.978;5.330;2023-04-12T13:58:39;13.60;99.90
14188;DHT22;7175;51.978;5.330;2023-04-12T14:01:08;14.20;99.90
14188;DHT22;7175;51.978;5.330;2023-04-12T14:03:37;14.30;99.90
14188;DHT22;7175;51.978;5.330;2023-04-12T14:06:06;14.50;99.90
14188;DHT22;7175;51.978;5.330;2023-04-12T14:08:35;14.70;99.90
14188;DHT22;7175;51.978;5.330;2023-04-12T14:11:04;14.50;99.90
14188;DHT22;7175;51.978;5.330;2023-04-12T14:13:34;14.30;99.90
14188;DHT22;7175;51.978;5.330;2023-04-12T14:16:04;13.70;99.90
14188;DHT22;7175;51.978;5.330;2023-04-12T14:18:33;13.00;99.90
14188;DHT22;7175;51.978;5.330;2023-04-12T14:21:02;13.00;99.90
14188;DHT22;7175;51.978;5.330;2023-04-12T14:23:31;12.70;99.90
14188;DHT22;7175;51.978;5.330;2023-04-12T14:25:59;12.70;99.90
14188;DHT22;7175;51.978;5.330;2023-04-12T14:28:28;12.70;99.90
14188;DHT22;7175;51.978;5.330;2023-04-12T14:30:59;12.70;99.90
14188;DHT22;7175;51.978;5.330;2023-04-12T14:33:31;12.50;99.90
14188;DHT22;7175;51.978;5.330;2023-04-12T14:36:00;12.50;99.90
14188;DHT22;7175;51.978;5.330;2023-04-12T14:38:31;12.50;99.90
14188;DHT22;7175;51.978;5.330;2023-04-12T14:40:59;12.50;99.90
14188;DHT22;7175;51.978;5.330;2023-04-12T14:43:28;12.70;99.90
14188;DHT22;7175;51.978;5.330;2023-04-12T14:45:56;12.90;99.90
14188;DHT22;7175;51.978;5.330;2023-04-12T14:48:26;12.70;99.90
14188;DHT22;7175;51.978;5.330;2023-04-12T14:50:55;12.80;99.90
14188;DHT22;7175;51.978;5.330;2023-04-12T14:53:23;12.80;99.90
14188;DHT22;7175;51.978;5.330;2023-04-12T14:55:52;12.90;99.90
14188;DHT22;7175;51.978;5.330;2023-04-12T14:58:20;12.80;99.90
14188;DHT22;7175;51.978;5.330;2023-04-12T15:00:48;12.90;99.90
14188;DHT22;7175;51.978;5.330;2023-04-12T15:03:17;12.90;99.90
14188;DHT22;7175;51.978;5.330;2023-04-12T15:05:48;12.90;99.90
14188;DHT22;7175;51.978;5.330;2023-04-12T15:08:17;12.90;99.90
14188;DHT22;7175;51.978;5.330;2023-04-12T15:10:46;12.90;99.90
14188;DHT22;7175;51.978;5.330;2023-04-12T15:13:14;12.40;99.90
14188;DHT22;7175;51.978;5.330;2023-04-12T15:15:43;12.40;99.90
14188;DHT22;7175;51.978;5.330;2023-04-12T15:18:13;12.30;99.90
14188;DHT22;7175;51.978;5.330;2023-04-12T15:20:42;12.30;99.90
14188;DHT22;7175;51.978;5.330;2023-04-12T15:23:12;12.10;99.90
14188;DHT22;7175;51.978;5.330;2023-04-12T15:25:41;12.20;99.90
14188;DHT22;7175;51.978;5.330;2023-04-12T15:28:10;12.40;99.90
14188;DHT22;7175;51.978;5.330;2023-04-12T15:30:38;12.50;99.90
14188;DHT22;7175;51.978;5.330;2023-04-12T15:33:07;12.30;99.90
14188;DHT22;7175;51.978;5.330;2023-04-12T15:35:36;12.50;99.90
14188;DHT22;7175;51.978;5.330;2023-04-12T15:38:04;12.70;99.90
14188;DHT22;7175;51.978;5.330;2023-04-12T15:40:34;12.50;99.90
14188;DHT22;7175;51.978;5.330;2023-04-12T15:43:03;12.50;99.90
14188;DHT22;7175;51.978;5.330;2023-04-12T15:45:31;12.80;99.90
14188;DHT22;7175;51.978;5.330;2023-04-12T15:48:00;12.60;99.90
14188;DHT22;7175;51.978;5.330;2023-04-12T15:50:28;12.60;99.90
14188;DHT22;7175;51.978;5.330;2023-04-12T15:52:57;12.50;99.90
14188;DHT22;7175;51.978;5.330;2023-04-12T15:55:25;12.60;99.90
14188;DHT22;7175;51.978;5.330;2023-04-12T15:57:55;12.60;99.90
14188;DHT22;7175;51.978;5.330;2023-04-12T16:00:25;12.40;99.90
14188;DHT22;7175;51.978;5.330;2023-04-12T16:02:53;12.40;99.90
14188;DHT22;7175;51.978;5.330;2023-04-12T16:05:25;12.20;99.90
14188;DHT22;7175;51.978;5.330;2023-04-12T16:07:53;12.50;99.90
14188;DHT22;7175;51.978;5.330;2023-04-12T16:10:22;12.20;99.90
14188;DHT22;7175;51.978;5.330;2023-04-12T16:12:52;12.10;99.90
14188;DHT22;7175;51.978;5.330;2023-04-12T16:15:27;11.90;99.90